createdAt,value
2018-08-16T00:05:03.312Z,1013.3
2018-08-16T00:15:18.866Z,1013.3
2018-08-16T00:25:33.085Z,1013.2
2018-08-16T00:35:46.875Z,1013.3
2018-08-16T00:46:01.040Z,1013.2
2018-08-16T00:56:16.728Z,1013.2
2018-08-16T01:06:30.416Z,1013.1
2018-08-16T01:16:44.899Z,1013.1
2018-08-16T01:26:59.180Z,1013.0
2018-08-16T01:37:13.219Z,1012.9
2018-08-16T01:47:27.378Z,1012.9
2018-08-16T01:57:41.723Z,1012.8
2018-08-16T02:07:55.768Z,1012.8
2018-08-16T02:18:13.344Z,1012.8
2018-08-16T02:28:26.891Z,1012.7
2018-08-16T02:38:41.148Z,1012.6
2018-08-16T02:48:55.606Z,1012.6
2018-08-16T02:59:09.832Z,1012.6
2018-08-16T03:10:33.787Z,1012.5
2018-08-16T03:20:47.169Z,1012.4
2018-08-16T03:31:01.664Z,1012.4
2018-08-16T03:41:14.504Z,1012.3
2018-08-16T03:51:59.616Z,1012.3
2018-08-16T04:03:04.689Z,1012.2
2018-08-16T04:13:18.783Z,1012.2
2018-08-16T04:23:33.095Z,1012.3
2018-08-16T04:33:45.332Z,1012.4
2018-08-16T04:55:36.371Z,1012.4
2018-08-16T05:05:50.698Z,1012.4
2018-08-16T05:16:05.197Z,1012.6
2018-08-16T05:26:19.017Z,1012.5
2018-08-16T05:36:33.306Z,1012.5
2018-08-16T05:46:47.399Z,1012.5
2018-08-16T05:57:32.856Z,1012.5
2018-08-16T06:08:20.718Z,1012.4
2018-08-16T06:19:07.442Z,1012.3
2018-08-16T06:29:56.497Z,1012.2
2018-08-16T06:40:42.010Z,1012.3
2018-08-16T06:50:56.360Z,1012.3
2018-08-16T07:01:11.445Z,1012.2
2018-08-16T07:11:27.879Z,1012.2
2018-08-16T07:21:40.019Z,1012.1
2018-08-16T07:31:56.142Z,1012.1
2018-08-16T07:52:27.189Z,1012.1
2018-08-16T08:02:38.795Z,1012.0
2018-08-16T08:12:53.225Z,1012.0
2018-08-16T08:23:08.261Z,1012.0
2018-08-16T08:33:42.341Z,1011.8
2018-08-16T08:43:56.181Z,1012.0
2018-08-16T08:54:10.206Z,1011.7
2018-08-16T09:04:24.814Z,1011.5
2018-08-16T09:14:39.545Z,1011.6
2018-08-16T09:24:54.228Z,1011.4
2018-08-16T09:35:39.549Z,1011.5
2018-08-16T09:45:56.339Z,1011.2
2018-08-16T09:56:15.182Z,1011.1
2018-08-16T10:06:29.403Z,1010.9
2018-08-16T10:16:43.800Z,1010.7
2018-08-16T10:26:57.876Z,1010.6
2018-08-16T10:37:46.934Z,1010.6
2018-08-16T10:48:32.236Z,1010.6
2018-08-16T10:58:59.779Z,1010.5
2018-08-16T11:53:43.707Z,1010.0
2018-08-16T12:04:48.455Z,1010.2
2018-08-16T12:15:02.822Z,1010.0
2018-08-16T12:25:14.522Z,1009.9
2018-08-16T12:35:33.548Z,1010.1
2018-08-16T13:01:44.684Z,1010.0
2018-08-16T13:11:58.515Z,1010.0
2018-08-16T13:22:12.705Z,1009.8
2018-08-16T13:32:25.046Z,1009.9
2018-08-16T13:42:37.266Z,1009.7
2018-08-16T13:53:24.805Z,1010.0
2018-08-16T14:04:10.905Z,1009.8
2018-08-16T14:14:24.971Z,1009.7
2018-08-16T14:25:33.061Z,1009.7
2018-08-16T14:35:47.264Z,1009.8
2018-08-16T14:47:01.477Z,1009.7
2018-08-16T14:59:20.719Z,1009.6
2018-08-16T15:20:38.012Z,1009.3
2018-08-16T15:43:20.857Z,1009.2
2018-08-16T15:53:56.699Z,1009.3
2018-08-16T16:04:46.703Z,1009.2
2018-08-16T16:21:37.170Z,1009.3
2018-08-16T16:34:50.811Z,1009.4
2018-08-16T16:46:21.072Z,1009.4
2018-08-16T16:57:10.568Z,1009.3
2018-08-16T17:08:14.617Z,1009.3
2018-08-16T17:18:26.314Z,1009.4
2018-08-16T17:28:37.895Z,1009.3
2018-08-16T17:39:30.012Z,1009.4
2018-08-16T17:49:47.403Z,1009.4
2018-08-16T18:00:03.251Z,1009.4
2018-08-16T18:11:00.836Z,1009.5
2018-08-16T18:21:14.204Z,1009.4
2018-08-16T18:31:53.944Z,1009.5
2018-08-16T18:42:07.766Z,1009.5
2018-08-16T18:55:36.262Z,1009.6
2018-08-16T19:08:16.908Z,1009.7
2018-08-16T19:20:10.661Z,1009.7
2018-08-16T19:30:24.959Z,1009.8
2018-08-16T19:40:57.251Z,1009.8
2018-08-16T19:51:11.556Z,1009.9
2018-08-16T20:01:58.985Z,1009.9
2018-08-16T20:13:33.656Z,1010.0
2018-08-16T20:24:00.348Z,1009.9
2018-08-16T20:34:35.678Z,1009.8
2018-08-16T20:44:50.273Z,1009.8
2018-08-16T20:55:04.506Z,1009.8
2018-08-16T21:05:49.514Z,1009.8
2018-08-16T21:16:35.464Z,1009.8
2018-08-16T21:27:21.531Z,1009.8
2018-08-16T21:37:36.147Z,1009.8
2018-08-16T21:48:21.463Z,1009.7
2018-08-16T21:58:35.917Z,1009.8
2018-08-16T22:09:21.472Z,1009.8
2018-08-16T22:19:35.882Z,1009.8
2018-08-16T22:29:51.657Z,1009.8
2018-08-16T22:40:05.230Z,1009.7
2018-08-16T22:50:19.393Z,1009.7
2018-08-16T23:00:33.429Z,1009.8
2018-08-16T23:11:19.188Z,1009.7
2018-08-16T23:22:08.252Z,1009.7
2018-08-16T23:32:22.583Z,1009.9
2018-08-16T23:43:07.871Z,1009.8
2018-08-16T23:53:22.488Z,1009.9
